createdAt,value
2023-02-18T00:03:42.401Z,68.42
2023-02-18T00:08:48.179Z,68.44
2023-02-18T00:13:59.189Z,68.41
2023-02-18T00:19:06.036Z,68.30
2023-02-18T00:24:12.445Z,68.17
2023-02-18T00:29:16.259Z,67.81
2023-02-18T00:34:20.117Z,68.26
2023-02-18T00:39:23.952Z,68.28
2023-02-18T00:44:28.900Z,68.60
2023-02-18T00:49:34.343Z,67.88
2023-02-18T00:54:39.919Z,68.52
2023-02-18T00:59:43.771Z,68.32
2023-02-18T01:04:47.602Z,68.21
2023-02-18T01:09:51.838Z,68.21
2023-02-18T01:14:55.703Z,68.43
2023-02-18T01:20:01.712Z,68.47
2023-02-18T01:25:07.340Z,68.50
2023-02-18T01:30:15.896Z,68.81
2023-02-18T01:35:21.854Z,68.71
2023-02-18T01:40:29.153Z,68.14
2023-02-18T01:45:39.707Z,68.46
2023-02-18T01:50:52.163Z,68.97
2023-02-18T01:55:56.524Z,68.80
2023-02-18T02:01:02.579Z,68.53
2023-02-18T02:06:15.813Z,68.78
2023-02-18T02:11:33.750Z,68.21
2023-02-18T02:16:37.543Z,68.71
2023-02-18T02:22:12.764Z,68.75
2023-02-18T02:27:23.356Z,68.61
2023-02-18T02:32:45.791Z,68.93
2023-02-18T02:38:01.133Z,68.69
2023-02-18T02:43:30.353Z,68.83
2023-02-18T02:48:38.996Z,69.08
2023-02-18T02:53:45.567Z,68.89
2023-02-18T02:59:07.293Z,68.51
2023-02-18T03:04:44.600Z,68.53
2023-02-18T03:10:04.620Z,69.05
2023-02-18T03:15:27.202Z,68.68
2023-02-18T03:20:47.570Z,68.30
2023-02-18T03:25:52.500Z,67.77
2023-02-18T03:31:14.154Z,67.58
2023-02-18T03:36:22.182Z,67.28
2023-02-18T03:41:25.991Z,67.35
2023-02-18T03:46:31.307Z,67.67
2023-02-18T03:51:35.479Z,67.47
2023-02-18T03:56:39.490Z,67.25
2023-02-18T04:01:43.533Z,66.70
2023-02-18T04:06:47.459Z,66.96
2023-02-18T04:11:51.381Z,66.04
2023-02-18T04:16:55.244Z,66.29
2023-02-18T04:21:59.219Z,66.43
2023-02-18T04:27:05.143Z,65.80
2023-02-18T04:32:09.644Z,65.87
2023-02-18T04:37:13.666Z,65.09
2023-02-18T04:42:17.648Z,65.24
2023-02-18T04:47:21.648Z,65.21
2023-02-18T04:52:25.423Z,64.87
2023-02-18T04:57:29.396Z,65.13
2023-02-18T05:02:33.943Z,65.14
2023-02-18T05:07:38.044Z,64.77
2023-02-18T05:12:42.188Z,65.18
2023-02-18T05:17:46.106Z,64.78
2023-02-18T05:22:50.182Z,65.19
2023-02-18T05:27:54.212Z,64.94
2023-02-18T05:32:58.049Z,65.16
2023-02-18T05:38:02.259Z,65.36
2023-02-18T05:43:05.946Z,65.43
2023-02-18T05:48:10.191Z,65.34
2023-02-18T05:53:15.156Z,65.12
2023-02-18T05:58:20.771Z,65.31
2023-02-18T06:03:24.835Z,65.09
2023-02-18T06:08:28.844Z,65.36
2023-02-18T06:13:32.888Z,65.06
2023-02-18T06:18:36.980Z,65.03
2023-02-18T06:23:41.041Z,64.89
2023-02-18T06:28:45.060Z,64.89
2023-02-18T06:33:48.815Z,64.66
2023-02-18T06:38:52.865Z,64.30
2023-02-18T06:43:56.749Z,64.49
2023-02-18T06:49:01.071Z,64.38
2023-02-18T06:54:06.528Z,64.37
2023-02-18T06:59:10.817Z,64.16
2023-02-18T07:04:14.967Z,64.11
2023-02-18T07:09:18.774Z,64.02
2023-02-18T07:14:25.148Z,64.03
2023-02-18T07:19:29.146Z,63.80
2023-02-18T07:24:33.119Z,63.80
2023-02-18T07:29:36.902Z,63.60
2023-02-18T07:34:40.965Z,63.15
2023-02-18T07:39:46.772Z,63.36
2023-02-18T07:44:50.564Z,63.48
2023-02-18T07:49:54.637Z,63.28
2023-02-18T07:54:58.482Z,63.33
2023-02-18T08:00:02.479Z,63.06
2023-02-18T08:05:16.206Z,63.54
2023-02-18T08:10:20.252Z,62.92
2023-02-18T08:15:24.679Z,62.96
2023-02-18T08:20:30.789Z,63.01
2023-02-18T08:25:35.166Z,63.07
2023-02-18T08:30:39.093Z,63.07
2023-02-18T08:35:43.938Z,62.65
2023-02-18T08:40:48.481Z,62.47
2023-02-18T08:45:53.269Z,62.34
2023-02-18T08:50:57.270Z,62.37
2023-02-18T08:56:01.272Z,62.93
2023-02-18T09:01:08.177Z,62.40
2023-02-18T09:06:12.626Z,62.62
2023-02-18T09:11:16.966Z,62.41
2023-02-18T09:16:21.603Z,62.31
2023-02-18T09:21:25.772Z,61.67
2023-02-18T09:26:29.778Z,62.21
2023-02-18T09:31:33.935Z,61.89
2023-02-18T09:36:39.187Z,62.05
2023-02-18T09:41:45.304Z,62.12
2023-02-18T09:47:03.529Z,62.11
2023-02-18T09:52:12.006Z,61.75
2023-02-18T09:57:36.833Z,62.01
2023-02-18T10:02:57.942Z,61.73
2023-02-18T10:08:10.094Z,61.77
2023-02-18T10:13:21.850Z,62.13
2023-02-18T10:18:36.954Z,61.97
2023-02-18T10:23:45.116Z,61.94
2023-02-18T10:28:49.231Z,62.08
2023-02-18T10:33:59.291Z,62.22
2023-02-18T10:39:08.534Z,62.14
2023-02-18T10:44:13.931Z,62.33
2023-02-18T10:49:43.828Z,62.57
2023-02-18T10:55:07.285Z,62.50
2023-02-18T11:00:24.959Z,62.90
2023-02-18T11:05:29.784Z,62.88
2023-02-18T11:10:36.794Z,62.84
2023-02-18T11:16:07.353Z,62.98
2023-02-18T11:21:23.178Z,62.89
2023-02-18T11:26:38.120Z,63.27
2023-02-18T11:31:48.111Z,63.47
2023-02-18T11:36:53.632Z,63.41
2023-02-18T11:42:07.898Z,63.83
2023-02-18T11:47:15.791Z,63.48
2023-02-18T11:52:21.840Z,63.81
2023-02-18T11:57:27.092Z,63.73
2023-02-18T12:02:31.174Z,63.88
2023-02-18T12:07:46.400Z,63.74
2023-02-18T12:13:03.874Z,64.22
2023-02-18T12:18:17.145Z,64.49
2023-02-18T12:23:42.944Z,64.54
2023-02-18T12:29:07.402Z,64.86
2023-02-18T12:34:52.469Z,65.28
2023-02-18T12:40:21.929Z,64.71
2023-02-18T12:46:10.684Z,65.43
2023-02-18T12:51:30.476Z,65.72
2023-02-18T12:56:59.441Z,65.57
2023-02-18T13:02:08.917Z,65.94
2023-02-18T13:07:20.427Z,65.79
2023-02-18T13:12:39.483Z,65.41
2023-02-18T13:17:45.067Z,66.29
2023-02-18T13:22:51.114Z,66.19
2023-02-18T13:28:19.994Z,66.18
2023-02-18T13:33:37.349Z,65.96
2023-02-18T13:39:05.434Z,66.10
2023-02-18T13:44:30.204Z,66.18
2023-02-18T13:49:36.904Z,66.88
2023-02-18T13:54:51.476Z,66.18
2023-02-18T14:00:03.540Z,66.40
2023-02-18T14:05:09.185Z,66.40
2023-02-18T14:10:19.342Z,66.79
2023-02-18T14:15:23.310Z,67.14
2023-02-18T14:20:38.588Z,67.12
2023-02-18T14:25:43.517Z,66.86
2023-02-18T14:30:48.182Z,67.33
2023-02-18T14:36:01.921Z,67.47
2023-02-18T14:41:35.046Z,66.82
2023-02-18T14:47:07.128Z,67.44
2023-02-18T14:52:28.102Z,67.52
2023-02-18T14:57:49.763Z,67.61
2023-02-18T15:02:56.337Z,67.88
2023-02-18T15:08:01.534Z,67.82
2023-02-18T15:13:09.647Z,68.18
2023-02-18T15:18:29.625Z,67.61
2023-02-18T15:23:38.083Z,68.23
2023-02-18T15:29:05.117Z,68.12
2023-02-18T15:34:27.418Z,68.35
2023-02-18T15:39:36.204Z,68.38
2023-02-18T15:44:50.065Z,68.50
2023-02-18T15:49:58.128Z,68.45
2023-02-18T15:55:15.359Z,68.66
2023-02-18T16:00:29.539Z,68.29
2023-02-18T16:05:39.763Z,68.07
2023-02-18T16:10:50.931Z,67.73
2023-02-18T16:15:55.281Z,68.49
2023-02-18T16:21:18.897Z,67.79
2023-02-18T16:26:45.591Z,67.80
2023-02-18T16:31:49.591Z,68.21
2023-02-18T16:37:12.908Z,67.78
2023-02-18T16:42:16.758Z,68.08
2023-02-18T16:47:21.370Z,68.70
2023-02-18T16:52:25.237Z,68.56
2023-02-18T16:57:29.008Z,68.63
2023-02-18T17:02:33.035Z,68.55
2023-02-18T17:07:37.631Z,68.46
2023-02-18T17:12:43.483Z,68.58
2023-02-18T17:17:47.288Z,68.81
2023-02-18T17:22:51.332Z,68.89
2023-02-18T17:27:55.358Z,68.73
2023-02-18T17:33:03.290Z,68.40
2023-02-18T17:38:19.020Z,68.46
2023-02-18T17:43:26.111Z,68.81
2023-02-18T17:48:30.431Z,68.60
2023-02-18T17:53:35.855Z,68.23
2023-02-18T17:58:39.737Z,68.49
2023-02-18T18:03:43.836Z,68.25
2023-02-18T18:08:49.223Z,68.31
2023-02-18T18:13:53.946Z,68.45
2023-02-18T18:18:57.713Z,68.71
2023-02-18T18:24:01.911Z,68.65
2023-02-18T18:29:05.791Z,68.60
2023-02-18T18:34:10.826Z,68.72
2023-02-18T18:39:15.521Z,68.43
2023-02-18T18:44:19.557Z,69.22
2023-02-18T18:49:23.377Z,68.73
2023-02-18T18:54:27.109Z,68.58
2023-02-18T18:59:32.500Z,68.61
2023-02-18T19:04:36.447Z,68.64
2023-02-18T19:09:40.387Z,68.61
2023-02-18T19:14:45.074Z,68.65
2023-02-18T19:19:48.840Z,69.07
2023-02-18T19:24:52.704Z,68.83
2023-02-18T19:29:56.991Z,68.96
2023-02-18T19:35:00.855Z,68.86
2023-02-18T19:40:09.546Z,69.29
2023-02-18T19:45:14.678Z,69.32
2023-02-18T19:50:18.632Z,69.21
2023-02-18T19:55:23.781Z,69.18
2023-02-18T20:00:27.613Z,68.92
2023-02-18T20:05:31.595Z,69.37
2023-02-18T20:10:36.180Z,69.25
2023-02-18T20:15:41.792Z,69.00
2023-02-18T20:20:49.928Z,69.31
2023-02-18T20:25:53.886Z,69.33
2023-02-18T20:31:09.129Z,69.36
2023-02-18T20:36:15.081Z,69.71
2023-02-18T20:41:20.892Z,69.57
2023-02-18T20:46:25.453Z,70.36
2023-02-18T20:51:29.259Z,70.23
2023-02-18T20:56:33.180Z,70.53
2023-02-18T21:01:37.728Z,70.73
2023-02-18T21:06:42.816Z,70.79
2023-02-18T21:11:46.744Z,70.71
2023-02-18T21:16:50.740Z,70.89
2023-02-18T21:21:54.706Z,71.13
2023-02-18T21:26:58.819Z,71.11
2023-02-18T21:32:02.823Z,71.22
2023-02-18T21:37:06.625Z,71.65
2023-02-18T21:42:11.589Z,71.53
2023-02-18T21:47:15.665Z,71.33
2023-02-18T21:52:19.477Z,71.87
2023-02-18T21:57:24.061Z,72.06
2023-02-18T22:02:31.649Z,72.37
2023-02-18T22:07:36.258Z,72.16
2023-02-18T22:12:40.129Z,72.40
2023-02-18T22:17:44.266Z,72.42
2023-02-18T22:22:48.043Z,72.40
2023-02-18T22:27:51.914Z,72.89
2023-02-18T22:32:55.774Z,72.68
2023-02-18T22:37:59.674Z,73.19
2023-02-18T22:43:04.259Z,72.81
2023-02-18T22:48:08.253Z,72.86
2023-02-18T22:53:12.114Z,73.13
2023-02-18T22:58:15.991Z,73.15
2023-02-18T23:03:19.705Z,73.05
2023-02-18T23:08:25.520Z,73.34
2023-02-18T23:13:29.693Z,73.25
2023-02-18T23:18:36.245Z,73.32
2023-02-18T23:23:40.353Z,73.37
2023-02-18T23:28:51.130Z,73.67
2023-02-18T23:33:58.115Z,73.39
2023-02-18T23:39:09.308Z,73.48
2023-02-18T23:44:18.518Z,73.43
2023-02-18T23:49:25.479Z,73.13
2023-02-18T23:54:29.278Z,73.68
2023-02-18T23:59:34.229Z,73.67
